• Join FlightAware (Why Join?)
  • Login
  • US Flag 
03:04PM EDT


 

Airport Tracker/Info


-or-


 

Live Flight TrackerFlight Track Log ✈ LXJ342 ✈ 23-Aug-2013 ✈ KTEB - KPWK

Flight Track Log - Related Links

Times and Time Zones

All times are in EDT time to prevent confusion due to time zone crossing. See the LXJ342 flight status page for this flight to view local times or setup timezone preferences in your user account.

Time Position Orientation Groundspeed Altitude Reporting Facility
EDT Latitude Longitude Course Direction KTS MPH feet Rate Location/Type
10:43AM 40.9167 -74.0333 294° West 212 244 2,100  Level New York TRACON
10:44AM 40.9167 -74.1167 270° West 227 261 3,800 2,040 Climbing New York TRACON
10:45AM 40.9000 -74.2167 258° West 255 293 6,200 2,100 Climbing New York TRACON
10:46AM 40.9000 -74.3167 270° West 296 341 8,100 1,200 Climbing New York TRACON
10:47AM 40.8919 -74.3781 260° West 301 346 8,100 900 Level New York Center
10:48AM 40.9383 -74.4244 323° Northwest 298 343 9,500 2,160 Climbing New York Center
10:49AM 41.1630 -74.7722 294° West  Level FlightAware Approximate
10:49AM 41.0111 -74.4969 323° Northwest 294 338 12,500  Level New York Center
10:50AM 41.0667 -74.5828 311° West 338 389 15,500 3,000 Climbing New York Center
10:51AM 41.1219 -74.6739 309° West 338 389 18,600 2,700 Climbing New York Center
10:52AM 41.1650 -74.7619 303° West 333 383 20,900 2,160 Climbing New York Center
10:53AM 41.2136 -74.8611 303° West 328 377 23,000 1,800 Climbing New York Center
10:54AM 41.2633 -74.9858 298° West 346 398 24,500 1,500 Climbing New York Center
10:55AM 41.3133 -75.1019 300° West 359 413 26,000 1,500 Climbing New York Center
10:56AM 41.3653 -75.2186 301° West 364 419 27,500 1,440 Climbing New York Center
10:57AM 41.4147 -75.3408 298° West 369 425 28,900 1,380 Climbing New York Center
10:58AM 41.4664 -75.4608 300° West 369 425 30,300 1,200 Climbing New York Center
10:59AM 41.5069 -75.5883 293° West 369 425 31,300 960 Climbing New York Center
11:00AM 41.5433 -75.7183 291° West 374 430 32,300 960 Climbing New York Center
11:01AM 41.5814 -75.8514 291° West 380 437 33,300 900 Climbing New York Center
11:02AM 41.6214 -75.9878 291° West 380 437 34,200 900 Climbing New York Center
11:03AM 41.6592 -76.1183 291° West 380 437 35,200 960 Climbing New York Center
11:04AM 41.6969 -76.2519 291° West 380 437 36,200 960 Climbing New York Center
11:05AM 41.7322 -76.3856 290° West 380 437 37,200 900 Climbing New York Center
11:06AM 41.7658 -76.5136 289° West 380 437 38,000 360 Climbing New York Center
11:07AM 41.8011 -76.6417 290° West 375 432 38,000  Level New York Center
11:08AM 41.8403 -76.7761 291° West 380 437 38,000  Level New York Center
11:10AM 41.9047 -77.0172 290° West 383 441 38,000  Level Cleveland Center
11:11AM 41.9400 -77.1467 290° West 383 441 38,000  Level Cleveland Center
11:12AM 41.9750 -77.2761 290° West 378 435 38,000  Level Cleveland Center
11:13AM 42.0100 -77.4056 290° West 378 435 38,000  Level Cleveland Center
11:14AM 42.0403 -77.5217 289° West 378 435 38,000  Level Cleveland Center
11:15AM 42.0728 -77.6514 289° West 373 429 38,000  Level Cleveland Center
11:16AM 42.1094 -77.7814 291° West 373 429 38,000  Level Cleveland Center
11:17AM 42.1436 -77.9144 289° West 373 429 38,000  Level Cleveland Center
11:18AM 42.1778 -78.0417 290° West 373 429 38,000  Level Cleveland Center
11:19AM 42.2119 -78.1722 289° West 373 429 38,000  Level Cleveland Center
11:20AM 42.2439 -78.3056 288° West 373 429 38,000  Level Cleveland Center
11:21AM 42.2778 -78.4364 289° West 373 429 38,000  Level Cleveland Center
11:22AM 42.3133 -78.5700 290° West 378 435 38,000  Level Cleveland Center
11:23AM 42.3492 -78.7064 290° West 378 435 38,000  Level Cleveland Center
11:24AM 42.3825 -78.8433 288° West 378 435 38,000  Level Cleveland Center
11:25AM 42.4158 -78.9772 289° West 378 435 38,000  Level Cleveland Center
11:26AM 42.4508 -79.1142 289° West 378 435 38,000  Level Cleveland Center
11:27AM 42.4839 -79.2542 288° West 383 441 38,000  Level Cleveland Center
11:28AM 42.5022 -79.4003 280° West 383 441 38,000  Level Cleveland Center
11:29AM 42.5036 -79.5467 271° West 389 448 38,000  Level Cleveland Center
11:30AM 42.5131 -79.6931 275° West 389 448 38,000  Level Cleveland Center
11:31AM 42.5225 -79.8422 275° West 389 448 38,000  Level Cleveland Center
11:32AM 42.5256 -80.0056 272° West 389 448 38,000  Level Cleveland Center
11:33AM 42.5303 -80.1522 273° West 395 455 38,000  Level Cleveland Center
11:34AM 42.5369 -80.3014 274° West 400 460 38,000  Level Cleveland Center
11:35AM 42.5436 -80.4394 274° West 399 459 38,000  Level Cleveland Center
11:36AM 42.5478 -80.5861 272° West 399 459 38,000  Level Cleveland Center
11:37AM 42.5539 -80.7353 273° West 404 465 38,000  Level Cleveland Center
11:38AM 42.5578 -80.8847 272° West 404 465 38,000  Level Cleveland Center
11:39AM 42.5656 -81.0369 274° West 404 465 38,000  Level Cleveland Center
11:40AM 42.5711 -81.1922 273° West 404 465 38,000  Level Cleveland Center
11:41AM 42.5764 -81.3417 273° West 404 465 38,000  Level Cleveland Center
11:42AM 42.5922 -81.4886 278° West 397 457 38,000  Level Cleveland Center
11:43AM 42.6197 -81.6553 283° West 397 457 38,000  Level Cleveland Center
11:44AM 42.6433 -81.7969 283° West 403 464 38,000  Level Cleveland Center
11:45AM 42.6689 -81.9442 283° West 403 464 38,000  Level Cleveland Center
11:46AM 42.6964 -82.0889 285° West 403 464 38,000  Level Cleveland Center
11:47AM 42.7194 -82.2336 282° West 398 458 38,000  Level Cleveland Center
11:48AM 42.7442 -82.3783 283° West 392 451 38,000  Level Cleveland Center
11:49AM 42.7522 -82.5256 274° West 397 457 38,000  Level Cleveland Center
11:50AM 42.7558 -82.6786 272° West 397 457 38,000  Level Cleveland Center
11:51AM 42.7614 -82.8286 273° West 402 463 38,000  Level Cleveland Center
11:52AM 42.7644 -82.9786 272° West 402 463 38,000  Level Cleveland Center
11:53AM 42.7717 -83.1317 274° West 402 463 38,000 -300 Level Cleveland Center
11:54AM 42.7744 -83.2872 271° West 407 468 37,500 -1,260 Descending Cleveland Center
11:55AM 42.7792 -83.4403 272° West 407 468 35,500 -2,040 Descending Cleveland Center
11:56AM 42.7817 -83.5792 271° West 407 468 33,500 -2,040 Descending Cleveland Center
11:57AM 42.7864 -83.7236 273° West 402 463 31,500 -1,800 Descending Cleveland Center
11:58AM 42.7886 -83.8653 271° West 397 457 30,000 -780 Descending Cleveland Center
11:59AM 42.7928 -84.0125 272° West 392 451 30,000  Level Cleveland Center
12:00PM 42.7961 -84.1742 272° West 407 468 30,000  Level Cleveland Center
12:01PM 42.8022 -84.4486 272° West 437 503 30,000  Level Chicago Center
12:02PM 42.7883 -84.6139 264° West 456 525 30,000  Level Chicago Center
12:03PM 42.7553 -84.7783 255° West 455 524 30,000  Level Chicago Center
12:04PM 42.7189 -84.9431 253° West 456 525 30,000  Level Chicago Center
12:05PM 42.6850 -85.1081 254° West 455 524 30,000 -780 Level Chicago Center
12:06PM 42.6417 -85.3078 254° West 457 526 28,400 -1,620 Descending Chicago Center
12:08PM 42.6069 -85.4678 254° West 449 517 26,700 -1,680 Descending Chicago Center
12:09PM 42.5725 -85.6242 253° West 437 503 25,000 -1,740 Descending Chicago Center
12:10PM 42.5392 -85.7761 253° West 425 489 23,200 -1,740 Descending Chicago Center
12:11PM 42.5067 -85.9236 253° West 411 473 21,500 -1,500 Descending Chicago Center
12:12PM 42.4750 -86.0694 254° West 402 463 20,100 -720 Descending Chicago Center
12:13PM 42.4608 -86.2128 262° West 385 443 20,000 -300 Descending Chicago Center
12:14PM 42.4525 -86.3883 266° West 386 444 19,600 -1,440 Descending Chicago Center
12:15PM 42.4450 -86.5369 266° West 393 452 17,100 -2,700 Descending Chicago Center
12:16PM 42.4367 -86.6786 265° West 381 438 14,100 -2,940 Descending Chicago Center
12:17PM 42.4297 -86.8131 266° West 362 417 11,100 -2,520 Descending Chicago Center
12:18PM 42.4228 -86.9381 266° West 339 390 8,900 -1,980 Descending Chicago Center
12:19PM 42.4156 -87.0481 265° West 302 348 7,100 -1,920 Descending Chicago Center
12:20PM 42.4086 -87.1708 266° West 275 316 4,900 -1,920 Descending Chicago Center
12:21PM 42.4011 -87.2767 265° West 282 325 3,200 -1,020 Descending Chicago Center
12:22PM 42.3811 -87.3856 256° West 280 322 2,900 -180 Descending Chicago Center
12:23PM 42.3544 -87.4850 250° West 282 325 2,900  Level Chicago Center
12:24PM 42.3281 -87.5808 250° West 278 320 2,900  Level Chicago Center
12:25PM 42.3000 -87.6761 248° West 276 318 2,900  Level Chicago Center
12:26PM 42.2744 -87.7747 251° West 277 319 2,900  Level Chicago Center
12:27PM 42.2706 -87.9011 268° West 281 323 2,900  Level Chicago Center
12:28PM 42.2500 -87.9775 250° West 259 298 2,900 -300 Level Chicago Center
12:29PM 42.2067 -87.9539 158° South 206 237 2,400 -600 Descending Chicago Center
12:30PM 42.1681 -87.9306 156° South 172 198 1,700 -720 Descending Chicago Center
12:31PM 42.1319 -87.9119 159° South 168 193 900 -780 Descending Chicago Center
12:33PM 42.1143 -87.9015 166° South  Level Estimated
12:40PM 42.1143 -87.9015 166° South  Level Estimated